sensor_id;sensor_type;location;lat;lon;timestamp;P1;durP1;ratioP1;P2;durP2;ratioP2
84923;SDS011;75286;52.218;5.180;2024-01-27T00:00:43;17.95;;;4.28;;
84923;SDS011;75286;52.218;5.180;2024-01-27T00:03:09;20.50;;;5.05;;
84923;SDS011;75286;52.218;5.180;2024-01-27T00:05:34;15.43;;;4.68;;
84923;SDS011;75286;52.218;5.180;2024-01-27T00:07:59;14.20;;;4.43;;
84923;SDS011;75286;52.218;5.180;2024-01-27T00:10:24;18.63;;;5.10;;
84923;SDS011;75286;52.218;5.180;2024-01-27T00:12:50;19.52;;;5.60;;
84923;SDS011;75286;52.218;5.180;2024-01-27T00:15:15;19.60;;;4.38;;
84923;SDS011;75286;52.218;5.180;2024-01-27T00:17:41;10.00;;;3.13;;
84923;SDS011;75286;52.218;5.180;2024-01-27T00:20:06;10.75;;;3.70;;
84923;SDS011;75286;52.218;5.180;2024-01-27T00:22:32;14.82;;;3.10;;
84923;SDS011;75286;52.218;5.180;2024-01-27T00:24:57;15.52;;;4.88;;
84923;SDS011;75286;52.218;5.180;2024-01-27T00:27:23;19.92;;;3.45;;
84923;SDS011;75286;52.218;5.180;2024-01-27T00:29:48;17.88;;;4.07;;
84923;SDS011;75286;52.218;5.180;2024-01-27T00:32:13;12.27;;;3.35;;
84923;SDS011;75286;52.218;5.180;2024-01-27T00:34:39;14.88;;;3.83;;
84923;SDS011;75286;52.218;5.180;2024-01-27T00:37:04;20.65;;;4.38;;
84923;SDS011;75286;52.218;5.180;2024-01-27T00:39:31;13.57;;;3.65;;
84923;SDS011;75286;52.218;5.180;2024-01-27T00:41:56;11.93;;;3.35;;
84923;SDS011;75286;52.218;5.180;2024-01-27T00:44:23;12.15;;;3.70;;
84923;SDS011;75286;52.218;5.180;2024-01-27T00:46:49;16.42;;;4.30;;
84923;SDS011;75286;52.218;5.180;2024-01-27T00:49:14;11.55;;;3.38;;
84923;SDS011;75286;52.218;5.180;2024-01-27T00:51:39;15.00;;;4.82;;
84923;SDS011;75286;52.218;5.180;2024-01-27T00:54:05;12.15;;;3.90;;
84923;SDS011;75286;52.218;5.180;2024-01-27T00:56:30;21.27;;;4.43;;
84923;SDS011;75286;52.218;5.180;2024-01-27T00:58:55;13.93;;;4.10;;
84923;SDS011;75286;52.218;5.180;2024-01-27T01:01:21;17.85;;;3.47;;
84923;SDS011;75286;52.218;5.180;2024-01-27T01:03:46;11.20;;;3.13;;
84923;SDS011;75286;52.218;5.180;2024-01-27T01:06:12;9.57;;;3.15;;
84923;SDS011;75286;52.218;5.180;2024-01-27T01:08:37;14.30;;;3.63;;
84923;SDS011;75286;52.218;5.180;2024-01-27T01:11:02;9.38;;;2.95;;
84923;SDS011;75286;52.218;5.180;2024-01-27T01:13:28;11.85;;;4.05;;
84923;SDS011;75286;52.218;5.180;2024-01-27T01:15:53;19.02;;;3.90;;
84923;SDS011;75286;52.218;5.180;2024-01-27T01:18:19;13.45;;;4.43;;
84923;SDS011;75286;52.218;5.180;2024-01-27T01:20:44;13.38;;;3.90;;
84923;SDS011;75286;52.218;5.180;2024-01-27T01:23:09;10.77;;;3.22;;
84923;SDS011;75286;52.218;5.180;2024-01-27T01:25:35;16.55;;;5.00;;
84923;SDS011;75286;52.218;5.180;2024-01-27T01:28:00;11.40;;;3.70;;
84923;SDS011;75286;52.218;5.180;2024-01-27T01:30:26;11.88;;;3.25;;
84923;SDS011;75286;52.218;5.180;2024-01-27T01:32:51;11.65;;;3.65;;
84923;SDS011;75286;52.218;5.180;2024-01-27T01:35:17;11.65;;;3.55;;
84923;SDS011;75286;52.218;5.180;2024-01-27T01:37:42;10.30;;;3.53;;
84923;SDS011;75286;52.218;5.180;2024-01-27T01:40:07;16.05;;;4.10;;
84923;SDS011;75286;52.218;5.180;2024-01-27T01:42:33;17.77;;;4.65;;
84923;SDS011;75286;52.218;5.180;2024-01-27T01:44:59;15.70;;;3.67;;
84923;SDS011;75286;52.218;5.180;2024-01-27T01:47:24;17.17;;;4.05;;
84923;SDS011;75286;52.218;5.180;2024-01-27T01:49:50;10.68;;;3.67;;
84923;SDS011;75286;52.218;5.180;2024-01-27T01:52:15;12.70;;;3.33;;
84923;SDS011;75286;52.218;5.180;2024-01-27T01:54:49;13.80;;;4.22;;
84923;SDS011;75286;52.218;5.180;2024-01-27T01:57:15;16.05;;;3.78;;
84923;SDS011;75286;52.218;5.180;2024-01-27T01:59:41;13.27;;;3.55;;
84923;SDS011;75286;52.218;5.180;2024-01-27T02:02:10;11.50;;;3.78;;
84923;SDS011;75286;52.218;5.180;2024-01-27T02:04:42;10.15;;;3.30;;
84923;SDS011;75286;52.218;5.180;2024-01-27T02:07:08;14.30;;;4.20;;
84923;SDS011;75286;52.218;5.180;2024-01-27T02:09:34;13.85;;;3.17;;
84923;SDS011;75286;52.218;5.180;2024-01-27T02:11:59;16.67;;;2.85;;
84923;SDS011;75286;52.218;5.180;2024-01-27T02:14:25;12.75;;;3.58;;
84923;SDS011;75286;52.218;5.180;2024-01-27T02:16:52;11.90;;;3.42;;
84923;SDS011;75286;52.218;5.180;2024-01-27T02:19:20;13.45;;;3.15;;
84923;SDS011;75286;52.218;5.180;2024-01-27T02:21:45;18.55;;;5.05;;
84923;SDS011;75286;52.218;5.180;2024-01-27T02:24:11;10.68;;;3.20;;
84923;SDS011;75286;52.218;5.180;2024-01-27T02:26:36;12.68;;;3.17;;
84923;SDS011;75286;52.218;5.180;2024-01-27T02:29:02;13.25;;;2.97;;
84923;SDS011;75286;52.218;5.180;2024-01-27T02:31:28;11.20;;;2.58;;
84923;SDS011;75286;52.218;5.180;2024-01-27T02:33:53;12.75;;;3.17;;
84923;SDS011;75286;52.218;5.180;2024-01-27T02:36:19;16.30;;;3.97;;
84923;SDS011;75286;52.218;5.180;2024-01-27T02:38:44;12.30;;;3.47;;
84923;SDS011;75286;52.218;5.180;2024-01-27T02:41:10;10.98;;;3.42;;
84923;SDS011;75286;52.218;5.180;2024-01-27T02:43:36;14.15;;;3.08;;
84923;SDS011;75286;52.218;5.180;2024-01-27T02:46:01;20.63;;;3.97;;
84923;SDS011;75286;52.218;5.180;2024-01-27T02:48:27;11.15;;;3.28;;
84923;SDS011;75286;52.218;5.180;2024-01-27T02:50:52;12.20;;;3.22;;
84923;SDS011;75286;52.218;5.180;2024-01-27T02:53:18;8.80;;;2.83;;
84923;SDS011;75286;52.218;5.180;2024-01-27T02:55:43;14.05;;;4.85;;
84923;SDS011;75286;52.218;5.180;2024-01-27T02:58:09;10.35;;;2.80;;
84923;SDS011;75286;52.218;5.180;2024-01-27T03:00:34;10.90;;;3.80;;
84923;SDS011;75286;52.218;5.180;2024-01-27T03:03:03;9.90;;;3.35;;
84923;SDS011;75286;52.218;5.180;2024-01-27T03:05:29;15.38;;;2.88;;
84923;SDS011;75286;52.218;5.180;2024-01-27T03:07:58;8.00;;;2.47;;
84923;SDS011;75286;52.218;5.180;2024-01-27T03:10:24;10.15;;;2.88;;
84923;SDS011;75286;52.218;5.180;2024-01-27T03:12:50;13.32;;;3.63;;
84923;SDS011;75286;52.218;5.180;2024-01-27T03:15:15;8.50;;;2.70;;
84923;SDS011;75286;52.218;5.180;2024-01-27T03:17:40;11.55;;;2.83;;
84923;SDS011;75286;52.218;5.180;2024-01-27T03:20:06;12.93;;;3.10;;
84923;SDS011;75286;52.218;5.180;2024-01-27T03:22:33;10.40;;;2.10;;
84923;SDS011;75286;52.218;5.180;2024-01-27T03:24:59;19.30;;;3.75;;
84923;SDS011;75286;52.218;5.180;2024-01-27T03:27:24;11.70;;;2.50;;
84923;SDS011;75286;52.218;5.180;2024-01-27T03:29:49;13.25;;;2.78;;
84923;SDS011;75286;52.218;5.180;2024-01-27T03:32:15;13.40;;;4.00;;
84923;SDS011;75286;52.218;5.180;2024-01-27T03:34:43;10.95;;;2.85;;
84923;SDS011;75286;52.218;5.180;2024-01-27T03:37:10;11.25;;;3.22;;
84923;SDS011;75286;52.218;5.180;2024-01-27T03:39:35;11.55;;;2.35;;
84923;SDS011;75286;52.218;5.180;2024-01-27T03:42:01;11.20;;;2.28;;
84923;SDS011;75286;52.218;5.180;2024-01-27T03:44:26;15.13;;;2.83;;
84923;SDS011;75286;52.218;5.180;2024-01-27T03:46:52;12.52;;;2.55;;
84923;SDS011;75286;52.218;5.180;2024-01-27T03:49:17;13.32;;;2.88;;
84923;SDS011;75286;52.218;5.180;2024-01-27T03:51:42;11.98;;;3.25;;
84923;SDS011;75286;52.218;5.180;2024-01-27T03:54:08;8.50;;;2.60;;
84923;SDS011;75286;52.218;5.180;2024-01-27T03:56:33;13.00;;;3.10;;
84923;SDS011;75286;52.218;5.180;2024-01-27T03:58:58;10.63;;;2.65;;
84923;SDS011;75286;52.218;5.180;2024-01-27T04:01:24;16.23;;;3.13;;
84923;SDS011;75286;52.218;5.180;2024-01-27T04:03:49;8.73;;;2.85;;
84923;SDS011;75286;52.218;5.180;2024-01-27T04:06:14;10.65;;;2.45;;
84923;SDS011;75286;52.218;5.180;2024-01-27T04:08:40;10.23;;;2.97;;
84923;SDS011;75286;52.218;5.180;2024-01-27T04:11:08;6.70;;;2.38;;
84923;SDS011;75286;52.218;5.180;2024-01-27T04:13:35;12.98;;;3.67;;
84923;SDS011;75286;52.218;5.180;2024-01-27T04:16:01;12.07;;;3.13;;
84923;SDS011;75286;52.218;5.180;2024-01-27T04:18:26;14.57;;;4.32;;
84923;SDS011;75286;52.218;5.180;2024-01-27T04:20:51;15.02;;;3.42;;
84923;SDS011;75286;52.218;5.180;2024-01-27T04:23:17;15.10;;;3.00;;
84923;SDS011;75286;52.218;5.180;2024-01-27T04:25:43;13.38;;;4.35;;
84923;SDS011;75286;52.218;5.180;2024-01-27T04:28:08;16.00;;;3.33;;
84923;SDS011;75286;52.218;5.180;2024-01-27T04:30:35;10.80;;;2.92;;
84923;SDS011;75286;52.218;5.180;2024-01-27T04:33:01;11.95;;;4.05;;
84923;SDS011;75286;52.218;5.180;2024-01-27T04:35:27;10.77;;;4.18;;
84923;SDS011;75286;52.218;5.180;2024-01-27T04:37:53;10.18;;;3.13;;
84923;SDS011;75286;52.218;5.180;2024-01-27T04:40:18;15.95;;;4.45;;
84923;SDS011;75286;52.218;5.180;2024-01-27T04:42:44;14.13;;;5.05;;
84923;SDS011;75286;52.218;5.180;2024-01-27T04:45:09;14.77;;;4.38;;
84923;SDS011;75286;52.218;5.180;2024-01-27T04:47:34;15.10;;;3.90;;
84923;SDS011;75286;52.218;5.180;2024-01-27T04:50:00;8.23;;;4.20;;
84923;SDS011;75286;52.218;5.180;2024-01-27T04:52:25;13.07;;;4.25;;
84923;SDS011;75286;52.218;5.180;2024-01-27T04:54:51;17.63;;;5.32;;
84923;SDS011;75286;52.218;5.180;2024-01-27T04:57:16;16.45;;;5.18;;
84923;SDS011;75286;52.218;5.180;2024-01-27T04:59:41;13.52;;;5.85;;
84923;SDS011;75286;52.218;5.180;2024-01-27T05:02:07;14.00;;;5.05;;
84923;SDS011;75286;52.218;5.180;2024-01-27T05:04:32;15.25;;;5.88;;
84923;SDS011;75286;52.218;5.180;2024-01-27T05:06:58;11.15;;;5.43;;
84923;SDS011;75286;52.218;5.180;2024-01-27T05:09:23;19.65;;;5.95;;
84923;SDS011;75286;52.218;5.180;2024-01-27T05:11:49;15.27;;;6.55;;
84923;SDS011;75286;52.218;5.180;2024-01-27T05:14:17;15.57;;;6.88;;
84923;SDS011;75286;52.218;5.180;2024-01-27T05:16:43;16.33;;;6.30;;
84923;SDS011;75286;52.218;5.180;2024-01-27T05:19:09;17.23;;;6.30;;
84923;SDS011;75286;52.218;5.180;2024-01-27T05:21:35;17.25;;;6.72;;
84923;SDS011;75286;52.218;5.180;2024-01-27T05:24:00;19.05;;;7.70;;
84923;SDS011;75286;52.218;5.180;2024-01-27T05:26:26;14.75;;;7.72;;
84923;SDS011;75286;52.218;5.180;2024-01-27T05:28:51;19.90;;;9.00;;
84923;SDS011;75286;52.218;5.180;2024-01-27T05:31:17;16.17;;;7.13;;
84923;SDS011;75286;52.218;5.180;2024-01-27T05:33:43;20.02;;;8.52;;
84923;SDS011;75286;52.218;5.180;2024-01-27T05:36:08;14.45;;;6.95;;
84923;SDS011;75286;52.218;5.180;2024-01-27T05:38:34;16.67;;;7.18;;
84923;SDS011;75286;52.218;5.180;2024-01-27T05:41:02;15.40;;;7.13;;
84923;SDS011;75286;52.218;5.180;2024-01-27T05:43:28;17.63;;;7.20;;
84923;SDS011;75286;52.218;5.180;2024-01-27T05:45:54;15.30;;;7.22;;
84923;SDS011;75286;52.218;5.180;2024-01-27T05:48:20;18.35;;;7.10;;
84923;SDS011;75286;52.218;5.180;2024-01-27T05:50:54;20.08;;;7.28;;
84923;SDS011;75286;52.218;5.180;2024-01-27T05:53:24;16.05;;;6.88;;
84923;SDS011;75286;52.218;5.180;2024-01-27T05:55:50;16.80;;;8.98;;
84923;SDS011;75286;52.218;5.180;2024-01-27T05:58:16;21.25;;;7.55;;
84923;SDS011;75286;52.218;5.180;2024-01-27T06:00:44;16.35;;;7.28;;
84923;SDS011;75286;52.218;5.180;2024-01-27T06:03:11;13.55;;;7.07;;
84923;SDS011;75286;52.218;5.180;2024-01-27T06:05:36;16.95;;;7.13;;
84923;SDS011;75286;52.218;5.180;2024-01-27T06:08:02;15.65;;;7.53;;
84923;SDS011;75286;52.218;5.180;2024-01-27T06:10:29;16.50;;;8.50;;
84923;SDS011;75286;52.218;5.180;2024-01-27T06:12:55;16.23;;;7.38;;
84923;SDS011;75286;52.218;5.180;2024-01-27T06:15:21;19.38;;;8.73;;
84923;SDS011;75286;52.218;5.180;2024-01-27T06:17:47;18.48;;;8.02;;
84923;SDS011;75286;52.218;5.180;2024-01-27T06:20:12;14.80;;;7.82;;
84923;SDS011;75286;52.218;5.180;2024-01-27T06:22:38;21.30;;;7.93;;
84923;SDS011;75286;52.218;5.180;2024-01-27T06:25:04;14.70;;;7.50;;
84923;SDS011;75286;52.218;5.180;2024-01-27T06:27:30;14.60;;;7.00;;
84923;SDS011;75286;52.218;5.180;2024-01-27T06:29:55;16.15;;;8.00;;
84923;SDS011;75286;52.218;5.180;2024-01-27T06:32:20;13.98;;;8.05;;
84923;SDS011;75286;52.218;5.180;2024-01-27T06:34:46;15.10;;;8.48;;
84923;SDS011;75286;52.218;5.180;2024-01-27T06:37:11;13.43;;;7.72;;
84923;SDS011;75286;52.218;5.180;2024-01-27T06:39:36;17.30;;;7.82;;
84923;SDS011;75286;52.218;5.180;2024-01-27T06:42:05;16.33;;;7.32;;
84923;SDS011;75286;52.218;5.180;2024-01-27T06:44:30;16.83;;;8.82;;
84923;SDS011;75286;52.218;5.180;2024-01-27T06:46:56;16.77;;;7.82;;
84923;SDS011;75286;52.218;5.180;2024-01-27T06:49:21;15.20;;;7.45;;
84923;SDS011;75286;52.218;5.180;2024-01-27T06:51:46;16.52;;;7.13;;
84923;SDS011;75286;52.218;5.180;2024-01-27T06:54:12;15.30;;;8.70;;
84923;SDS011;75286;52.218;5.180;2024-01-27T06:56:37;14.45;;;7.82;;
84923;SDS011;75286;52.218;5.180;2024-01-27T06:59:03;16.67;;;8.05;;
84923;SDS011;75286;52.218;5.180;2024-01-27T07:01:28;15.25;;;8.38;;
84923;SDS011;75286;52.218;5.180;2024-01-27T07:03:54;17.15;;;8.25;;
84923;SDS011;75286;52.218;5.180;2024-01-27T07:06:19;16.77;;;8.25;;
84923;SDS011;75286;52.218;5.180;2024-01-27T07:08:45;17.45;;;9.18;;
84923;SDS011;75286;52.218;5.180;2024-01-27T07:11:10;16.30;;;9.05;;
84923;SDS011;75286;52.218;5.180;2024-01-27T07:13:37;16.27;;;8.20;;
84923;SDS011;75286;52.218;5.180;2024-01-27T07:16:02;13.75;;;8.90;;
84923;SDS011;75286;52.218;5.180;2024-01-27T07:18:28;19.73;;;10.30;;
84923;SDS011;75286;52.218;5.180;2024-01-27T07:20:54;22.83;;;9.02;;
84923;SDS011;75286;52.218;5.180;2024-01-27T07:23:20;14.55;;;7.65;;
84923;SDS011;75286;52.218;5.180;2024-01-27T07:25:45;19.08;;;9.15;;
84923;SDS011;75286;52.218;5.180;2024-01-27T07:28:11;15.73;;;7.85;;
84923;SDS011;75286;52.218;5.180;2024-01-27T07:30:36;17.85;;;9.18;;
84923;SDS011;75286;52.218;5.180;2024-01-27T07:33:02;16.80;;;8.57;;
84923;SDS011;75286;52.218;5.180;2024-01-27T07:35:27;16.98;;;9.00;;
84923;SDS011;75286;52.218;5.180;2024-01-27T07:37:53;15.68;;;8.43;;
84923;SDS011;75286;52.218;5.180;2024-01-27T07:40:19;17.55;;;9.73;;
84923;SDS011;75286;52.218;5.180;2024-01-27T07:42:44;15.07;;;8.45;;
84923;SDS011;75286;52.218;5.180;2024-01-27T07:45:09;20.45;;;10.18;;
84923;SDS011;75286;52.218;5.180;2024-01-27T07:47:35;15.45;;;7.95;;
84923;SDS011;75286;52.218;5.180;2024-01-27T07:50:00;17.13;;;9.25;;
84923;SDS011;75286;52.218;5.180;2024-01-27T07:52:26;15.32;;;8.30;;
84923;SDS011;75286;52.218;5.180;2024-01-27T07:54:51;15.10;;;8.30;;
84923;SDS011;75286;52.218;5.180;2024-01-27T07:57:16;15.55;;;7.78;;
84923;SDS011;75286;52.218;5.180;2024-01-27T07:59:42;17.05;;;8.48;;
84923;SDS011;75286;52.218;5.180;2024-01-27T08:02:07;19.15;;;9.82;;
84923;SDS011;75286;52.218;5.180;2024-01-27T08:04:33;14.18;;;7.53;;
84923;SDS011;75286;52.218;5.180;2024-01-27T08:06:58;18.75;;;8.23;;
84923;SDS011;75286;52.218;5.180;2024-01-27T08:09:23;16.58;;;9.18;;
84923;SDS011;75286;52.218;5.180;2024-01-27T08:11:50;18.65;;;9.20;;
84923;SDS011;75286;52.218;5.180;2024-01-27T08:14:17;19.27;;;9.93;;
84923;SDS011;75286;52.218;5.180;2024-01-27T08:16:43;20.13;;;9.20;;
84923;SDS011;75286;52.218;5.180;2024-01-27T08:19:11;17.98;;;9.25;;
84923;SDS011;75286;52.218;5.180;2024-01-27T08:21:40;15.57;;;8.98;;
84923;SDS011;75286;52.218;5.180;2024-01-27T08:24:05;20.10;;;9.65;;
84923;SDS011;75286;52.218;5.180;2024-01-27T08:26:31;18.23;;;9.25;;
84923;SDS011;75286;52.218;5.180;2024-01-27T08:28:56;15.13;;;9.15;;
84923;SDS011;75286;52.218;5.180;2024-01-27T08:31:23;18.02;;;8.35;;
84923;SDS011;75286;52.218;5.180;2024-01-27T08:33:48;17.67;;;8.32;;
84923;SDS011;75286;52.218;5.180;2024-01-27T08:36:14;15.63;;;8.60;;
84923;SDS011;75286;52.218;5.180;2024-01-27T08:38:40;15.85;;;9.32;;
84923;SDS011;75286;52.218;5.180;2024-01-27T08:41:05;14.15;;;9.10;;
84923;SDS011;75286;52.218;5.180;2024-01-27T08:43:30;17.05;;;9.18;;
84923;SDS011;75286;52.218;5.180;2024-01-27T08:45:56;14.43;;;8.45;;
84923;SDS011;75286;52.218;5.180;2024-01-27T08:48:21;17.33;;;9.43;;
84923;SDS011;75286;52.218;5.180;2024-01-27T08:50:47;13.65;;;8.57;;
84923;SDS011;75286;52.218;5.180;2024-01-27T08:53:12;15.35;;;8.68;;
84923;SDS011;75286;52.218;5.180;2024-01-27T08:55:37;19.23;;;9.48;;
84923;SDS011;75286;52.218;5.180;2024-01-27T08:58:03;14.00;;;8.48;;
84923;SDS011;75286;52.218;5.180;2024-01-27T09:00:28;16.08;;;9.55;;
84923;SDS011;75286;52.218;5.180;2024-01-27T09:02:54;19.25;;;9.25;;
84923;SDS011;75286;52.218;5.180;2024-01-27T09:05:20;16.70;;;8.73;;
84923;SDS011;75286;52.218;5.180;2024-01-27T09:07:45;17.48;;;9.07;;
84923;SDS011;75286;52.218;5.180;2024-01-27T09:10:11;19.25;;;8.07;;
84923;SDS011;75286;52.218;5.180;2024-01-27T09:12:39;15.55;;;7.63;;
84923;SDS011;75286;52.218;5.180;2024-01-27T09:15:04;14.57;;;8.50;;
84923;SDS011;75286;52.218;5.180;2024-01-27T09:17:32;14.18;;;7.68;;
84923;SDS011;75286;52.218;5.180;2024-01-27T09:19:57;17.35;;;7.45;;
84923;SDS011;75286;52.218;5.180;2024-01-27T09:22:23;16.15;;;7.90;;
84923;SDS011;75286;52.218;5.180;2024-01-27T09:24:48;15.07;;;7.75;;
84923;SDS011;75286;52.218;5.180;2024-01-27T09:27:13;17.33;;;8.27;;
84923;SDS011;75286;52.218;5.180;2024-01-27T09:29:39;19.50;;;8.10;;
84923;SDS011;75286;52.218;5.180;2024-01-27T09:32:04;16.48;;;9.00;;
84923;SDS011;75286;52.218;5.180;2024-01-27T09:34:30;14.02;;;7.47;;
84923;SDS011;75286;52.218;5.180;2024-01-27T09:36:55;15.13;;;8.02;;
84923;SDS011;75286;52.218;5.180;2024-01-27T09:39:33;19.00;;;9.32;;
84923;SDS011;75286;52.218;5.180;2024-01-27T09:42:00;15.90;;;8.13;;
84923;SDS011;75286;52.218;5.180;2024-01-27T09:44:31;12.75;;;7.50;;
84923;SDS011;75286;52.218;5.180;2024-01-27T09:47:00;15.30;;;6.95;;
84923;SDS011;75286;52.218;5.180;2024-01-27T09:49:26;14.73;;;6.78;;
84923;SDS011;75286;52.218;5.180;2024-01-27T09:51:52;15.10;;;6.85;;
84923;SDS011;75286;52.218;5.180;2024-01-27T09:54:18;15.07;;;7.32;;
84923;SDS011;75286;52.218;5.180;2024-01-27T09:56:45;19.00;;;7.40;;
84923;SDS011;75286;52.218;5.180;2024-01-27T09:59:11;16.10;;;7.63;;
84923;SDS011;75286;52.218;5.180;2024-01-27T10:01:39;15.85;;;7.13;;
84923;SDS011;75286;52.218;5.180;2024-01-27T10:04:05;14.27;;;7.18;;
84923;SDS011;75286;52.218;5.180;2024-01-27T10:06:34;16.63;;;9.23;;
84923;SDS011;75286;52.218;5.180;2024-01-27T10:08:59;21.38;;;7.10;;
84923;SDS011;75286;52.218;5.180;2024-01-27T10:11:24;14.65;;;6.80;;
84923;SDS011;75286;52.218;5.180;2024-01-27T10:13:53;13.63;;;6.65;;
84923;SDS011;75286;52.218;5.180;2024-01-27T10:16:26;15.40;;;6.75;;
84923;SDS011;75286;52.218;5.180;2024-01-27T10:18:59;15.27;;;5.78;;
84923;SDS011;75286;52.218;5.180;2024-01-27T10:21:27;15.70;;;5.88;;
84923;SDS011;75286;52.218;5.180;2024-01-27T10:23:53;17.13;;;7.00;;
84923;SDS011;75286;52.218;5.180;2024-01-27T10:26:18;15.45;;;6.57;;
84923;SDS011;75286;52.218;5.180;2024-01-27T10:28:56;15.10;;;6.50;;
84923;SDS011;75286;52.218;5.180;2024-01-27T10:31:40;16.83;;;6.53;;
84923;SDS011;75286;52.218;5.180;2024-01-27T10:34:05;18.52;;;6.45;;
84923;SDS011;75286;52.218;5.180;2024-01-27T10:36:41;14.13;;;7.07;;
84923;SDS011;75286;52.218;5.180;2024-01-27T10:41:47;13.75;;;5.20;;
84923;SDS011;75286;52.218;5.180;2024-01-27T10:44:16;17.05;;;6.35;;
84923;SDS011;75286;52.218;5.180;2024-01-27T10:46:43;13.82;;;6.68;;
84923;SDS011;75286;52.218;5.180;2024-01-27T10:49:14;14.00;;;6.13;;
84923;SDS011;75286;52.218;5.180;2024-01-27T10:51:50;18.58;;;6.53;;
84923;SDS011;75286;52.218;5.180;2024-01-27T10:54:23;12.38;;;6.20;;
84923;SDS011;75286;52.218;5.180;2024-01-27T10:56:53;11.85;;;5.35;;
84923;SDS011;75286;52.218;5.180;2024-01-27T10:59:21;12.65;;;5.95;;
84923;SDS011;75286;52.218;5.180;2024-01-27T11:01:47;14.65;;;6.43;;
84923;SDS011;75286;52.218;5.180;2024-01-27T11:04:16;17.98;;;6.95;;
84923;SDS011;75286;52.218;5.180;2024-01-27T11:06:42;18.77;;;7.25;;
84923;SDS011;75286;52.218;5.180;2024-01-27T11:09:09;12.07;;;6.78;;
84923;SDS011;75286;52.218;5.180;2024-01-27T11:11:37;16.35;;;6.05;;
84923;SDS011;75286;52.218;5.180;2024-01-27T11:14:04;14.52;;;7.10;;
84923;SDS011;75286;52.218;5.180;2024-01-27T11:16:30;15.35;;;6.35;;
84923;SDS011;75286;52.218;5.180;2024-01-27T11:18:55;13.88;;;5.75;;
84923;SDS011;75286;52.218;5.180;2024-01-27T11:21:21;12.27;;;5.70;;
84923;SDS011;75286;52.218;5.180;2024-01-27T11:23:47;12.57;;;5.72;;
84923;SDS011;75286;52.218;5.180;2024-01-27T11:26:18;19.52;;;6.57;;
84923;SDS011;75286;52.218;5.180;2024-01-27T11:28:45;13.13;;;5.88;;
84923;SDS011;75286;52.218;5.180;2024-01-27T11:31:10;14.13;;;6.38;;
84923;SDS011;75286;52.218;5.180;2024-01-27T11:33:43;12.43;;;5.30;;
84923;SDS011;75286;52.218;5.180;2024-01-27T11:36:21;12.60;;;5.85;;
84923;SDS011;75286;52.218;5.180;2024-01-27T11:38:48;15.88;;;5.65;;
84923;SDS011;75286;52.218;5.180;2024-01-27T11:41:22;12.80;;;5.68;;
84923;SDS011;75286;52.218;5.180;2024-01-27T11:43:53;16.92;;;5.43;;
84923;SDS011;75286;52.218;5.180;2024-01-27T11:46:19;16.50;;;6.13;;
84923;SDS011;75286;52.218;5.180;2024-01-27T11:48:45;12.82;;;4.68;;
84923;SDS011;75286;52.218;5.180;2024-01-27T11:51:11;11.38;;;4.85;;
84923;SDS011;75286;52.218;5.180;2024-01-27T11:53:37;12.35;;;5.25;;
84923;SDS011;75286;52.218;5.180;2024-01-27T11:56:03;12.55;;;4.78;;
84923;SDS011;75286;52.218;5.180;2024-01-27T11:58:29;12.82;;;4.43;;
84923;SDS011;75286;52.218;5.180;2024-01-27T12:00:56;13.63;;;4.43;;
84923;SDS011;75286;52.218;5.180;2024-01-27T12:03:21;12.98;;;4.25;;
84923;SDS011;75286;52.218;5.180;2024-01-27T12:05:47;15.60;;;4.93;;
84923;SDS011;75286;52.218;5.180;2024-01-27T12:08:13;13.98;;;4.78;;
84923;SDS011;75286;52.218;5.180;2024-01-27T12:10:38;15.82;;;5.30;;
84923;SDS011;75286;52.218;5.180;2024-01-27T12:13:04;10.43;;;4.35;;
84923;SDS011;75286;52.218;5.180;2024-01-27T12:15:30;13.90;;;4.32;;
84923;SDS011;75286;52.218;5.180;2024-01-27T12:17:55;14.57;;;4.57;;
84923;SDS011;75286;52.218;5.180;2024-01-27T12:20:22;11.68;;;4.88;;
84923;SDS011;75286;52.218;5.180;2024-01-27T12:22:48;18.55;;;7.78;;
84923;SDS011;75286;52.218;5.180;2024-01-27T12:25:16;20.98;;;8.90;;
84923;SDS011;75286;52.218;5.180;2024-01-27T12:27:41;15.32;;;6.80;;
84923;SDS011;75286;52.218;5.180;2024-01-27T12:30:07;17.55;;;5.05;;
84923;SDS011;75286;52.218;5.180;2024-01-27T12:32:33;13.68;;;4.55;;
84923;SDS011;75286;52.218;5.180;2024-01-27T12:35:04;13.52;;;4.43;;
84923;SDS011;75286;52.218;5.180;2024-01-27T12:37:30;9.27;;;3.47;;
84923;SDS011;75286;52.218;5.180;2024-01-27T12:39:55;12.10;;;4.20;;
84923;SDS011;75286;52.218;5.180;2024-01-27T12:42:21;17.83;;;4.00;;
84923;SDS011;75286;52.218;5.180;2024-01-27T12:44:46;17.17;;;4.78;;
84923;SDS011;75286;52.218;5.180;2024-01-27T12:47:11;13.70;;;3.97;;
84923;SDS011;75286;52.218;5.180;2024-01-27T12:49:39;11.48;;;3.83;;
84923;SDS011;75286;52.218;5.180;2024-01-27T12:52:06;13.70;;;4.70;;
84923;SDS011;75286;52.218;5.180;2024-01-27T12:54:31;12.30;;;4.00;;
84923;SDS011;75286;52.218;5.180;2024-01-27T12:56:57;11.50;;;4.13;;
84923;SDS011;75286;52.218;5.180;2024-01-27T12:59:23;13.15;;;4.43;;
84923;SDS011;75286;52.218;5.180;2024-01-27T13:01:48;15.57;;;4.20;;
84923;SDS011;75286;52.218;5.180;2024-01-27T13:04:14;9.70;;;4.07;;
84923;SDS011;75286;52.218;5.180;2024-01-27T13:06:40;13.52;;;3.75;;
84923;SDS011;75286;52.218;5.180;2024-01-27T13:09:05;12.88;;;4.35;;
84923;SDS011;75286;52.218;5.180;2024-01-27T13:11:31;13.25;;;3.83;;
84923;SDS011;75286;52.218;5.180;2024-01-27T13:13:57;11.38;;;3.83;;
84923;SDS011;75286;52.218;5.180;2024-01-27T13:16:22;12.60;;;3.33;;
84923;SDS011;75286;52.218;5.180;2024-01-27T13:18:47;14.07;;;3.25;;
84923;SDS011;75286;52.218;5.180;2024-01-27T13:21:13;16.65;;;5.13;;
84923;SDS011;75286;52.218;5.180;2024-01-27T13:23:39;11.82;;;4.03;;
84923;SDS011;75286;52.218;5.180;2024-01-27T13:26:05;13.15;;;4.25;;
84923;SDS011;75286;52.218;5.180;2024-01-27T13:28:30;11.63;;;3.60;;
84923;SDS011;75286;52.218;5.180;2024-01-27T13:30:56;12.30;;;3.75;;
84923;SDS011;75286;52.218;5.180;2024-01-27T13:33:21;15.20;;;4.70;;
84923;SDS011;75286;52.218;5.180;2024-01-27T13:35:47;17.80;;;4.45;;
84923;SDS011;75286;52.218;5.180;2024-01-27T13:38:13;11.35;;;3.70;;
84923;SDS011;75286;52.218;5.180;2024-01-27T13:40:38;17.10;;;4.53;;
84923;SDS011;75286;52.218;5.180;2024-01-27T13:43:04;16.52;;;4.80;;
84923;SDS011;75286;52.218;5.180;2024-01-27T13:45:30;13.13;;;3.55;;
84923;SDS011;75286;52.218;5.180;2024-01-27T13:47:56;17.30;;;4.13;;
84923;SDS011;75286;52.218;5.180;2024-01-27T13:50:22;10.63;;;4.30;;
84923;SDS011;75286;52.218;5.180;2024-01-27T13:52:47;11.60;;;4.35;;
84923;SDS011;75286;52.218;5.180;2024-01-27T13:55:13;11.48;;;3.95;;
84923;SDS011;75286;52.218;5.180;2024-01-27T13:57:39;20.83;;;4.63;;
84923;SDS011;75286;52.218;5.180;2024-01-27T14:00:06;14.63;;;5.20;;
84923;SDS011;75286;52.218;5.180;2024-01-27T14:02:32;18.30;;;4.55;;
84923;SDS011;75286;52.218;5.180;2024-01-27T14:04:58;18.05;;;4.78;;
84923;SDS011;75286;52.218;5.180;2024-01-27T14:07:23;12.20;;;4.30;;
84923;SDS011;75286;52.218;5.180;2024-01-27T14:09:49;13.38;;;4.10;;
84923;SDS011;75286;52.218;5.180;2024-01-27T14:12:14;11.70;;;4.30;;
84923;SDS011;75286;52.218;5.180;2024-01-27T14:14:40;16.80;;;5.28;;
84923;SDS011;75286;52.218;5.180;2024-01-27T14:17:07;13.10;;;4.50;;
84923;SDS011;75286;52.218;5.180;2024-01-27T14:19:33;12.65;;;4.18;;
84923;SDS011;75286;52.218;5.180;2024-01-27T14:21:58;15.45;;;4.10;;
84923;SDS011;75286;52.218;5.180;2024-01-27T14:24:40;19.40;;;4.82;;
84923;SDS011;75286;52.218;5.180;2024-01-27T14:27:06;13.77;;;4.47;;
84923;SDS011;75286;52.218;5.180;2024-01-27T14:29:33;15.20;;;4.40;;
84923;SDS011;75286;52.218;5.180;2024-01-27T14:32:00;11.65;;;4.03;;